Time;durP1;ratioP1;P1;durP2;ratioP2;P2;SDS_P1;SDS_P2;PMS_P1;PMS_P2;Temp;Humidity;BMP_temperature;BMP_pressure;BME280_temperature;BME280_humidity;BME280_pressure;Samples;Min_cycle;Max_cycle;Signal;HPM_P1;HPM_P2
2023/04/03 00:01:03;;;;;;;0.50;0.30;;;16.50;56.90;;;;;;5015641;28;20034;-76
2023/04/03 00:03:29;;;;;;;1.67;0.50;;;16.50;56.90;;;;;;5015973;28;20101;-76
2023/04/03 00:05:55;;;;;;;0.50;0.38;;;16.50;57.50;;;;;;5015626;28;20484;-76
2023/04/03 00:08:21;;;;;;;0.50;0.30;;;16.50;56.90;;;;;;5015661;28;20084;-76
2023/04/03 00:10:47;;;;;;;1.00;0.32;;;16.50;56.90;;;;;;5015851;28;20117;-76
2023/04/03 00:13:13;;;;;;;0.45;0.30;;;16.50;56.90;;;;;;5015342;28;20076;-76
2023/04/03 00:15:39;;;;;;;0.93;0.50;;;16.50;56.90;;;;;;5015101;28;20053;-76
2023/04/03 00:18:05;;;;;;;0.30;0.30;;;16.50;56.90;;;;;;5015266;28;20018;-76
2023/04/03 00:20:32;;;;;;;0.63;0.38;;;16.40;56.80;;;;;;5015164;28;20049;-76
2023/04/03 00:22:58;;;;;;;0.52;0.35;;;16.40;57.20;;;;;;5015186;28;20030;-76
2023/04/03 00:25:24;;;;;;;0.35;0.35;;;16.40;56.80;;;;;;5014953;28;20095;-76
2023/04/03 00:27:50;;;;;;;0.65;0.40;;;16.50;56.80;;;;;;5014565;28;20037;-76
2023/04/03 00:30:18;;;;;;;0.85;0.30;;;16.40;56.80;;;;;;5014926;28;20042;-76
2023/04/03 00:32:44;;;;;;;1.30;0.38;;;16.40;56.80;;;;;;5014840;28;20029;-76
2023/04/03 00:35:10;;;;;;;0.43;0.30;;;16.40;57.40;;;;;;5014837;28;20029;-77
2023/04/03 00:37:36;;;;;;;0.40;0.35;;;16.40;56.80;;;;;;5015017;28;20108;-76
2023/04/03 00:40:03;;;;;;;0.30;0.30;;;16.40;56.80;;;;;;5014929;28;20109;-76
2023/04/03 00:42:29;;;;;;;0.40;0.40;;;16.40;56.70;;;;;;5015181;28;20546;-76
2023/04/03 00:44:57;;;;;;;0.60;0.30;;;16.40;56.70;;;;;;5014996;28;20034;-76
2023/04/03 00:47:24;;;;;;;0.57;0.40;;;16.40;56.90;;;;;;5015162;28;20022;-76
2023/04/03 00:49:51;;;;;;;0.52;0.30;;;16.40;56.70;;;;;;5015304;28;20030;-76
2023/04/03 00:52:21;;;;;;;0.30;0.20;;;16.40;56.70;;;;;;5015067;28;20036;-76
2023/04/03 00:54:48;;;;;;;0.35;0.20;;;16.40;56.70;;;;;;5015175;28;20021;-76
2023/04/03 00:57:15;;;;;;;0.28;0.20;;;16.40;56.70;;;;;;5015301;28;20381;-76
2023/04/03 00:59:50;;;;;;;0.57;0.22;;;16.40;56.70;;;;;;5014922;28;20065;-76
2023/04/03 01:02:16;;;;;;;0.20;0.20;;;16.40;56.60;;;;;;5015066;28;20095;-76
2023/04/03 01:04:43;;;;;;;1.02;0.40;;;16.40;56.70;;;;;;5014895;28;20033;-76
2023/04/03 01:07:16;;;;;;;0.50;0.30;;;16.40;56.70;;;;;;5015102;28;20109;-76
2023/04/03 01:09:43;;;;;;;0.30;0.20;;;16.30;56.60;;;;;;5014907;28;20030;-76
2023/04/03 01:12:24;;;;;;;0.30;0.30;;;16.30;56.60;;;;;;5014785;28;20101;-76
2023/04/03 01:14:55;;;;;;;0.35;0.25;;;16.30;56.60;;;;;;5014689;28;20109;-76
2023/04/03 01:17:42;;;;;;;0.40;0.30;;;16.30;56.60;;;;;;5014600;28;20056;-76
2023/04/03 01:20:14;;;;;;;0.45;0.32;;;16.30;56.60;;;;;;5014962;28;20021;-76
2023/04/03 01:23:02;;;;;;;0.32;0.25;;;16.30;56.50;;;;;;5014736;28;20053;-76
2023/04/03 01:25:28;;;;;;;0.40;0.40;;;16.30;56.50;;;;;;5007973;28;20054;-76
2023/04/03 01:27:54;;;;;;;0.38;0.20;;;16.30;56.60;;;;;;5014322;28;20053;-76
2023/04/03 01:30:23;;;;;;;0.50;0.30;;;16.30;56.60;;;;;;4996929;28;20489;-76
2023/04/03 01:32:49;;;;;;;0.43;0.30;;;16.30;56.50;;;;;;5014184;28;20038;-76
2023/04/03 01:35:14;;;;;;;0.25;0.25;;;16.20;56.50;;;;;;5014609;28;20076;-76
2023/04/03 01:37:40;;;;;;;0.50;0.20;;;16.20;56.50;;;;;;5014541;28;20064;-76
2023/04/03 01:40:06;;;;;;;0.20;0.20;;;16.20;56.50;;;;;;5013129;28;20026;-76
2023/04/03 01:42:32;;;;;;;0.32;0.30;;;16.20;56.50;;;;;;5014209;28;20030;-76
2023/04/03 01:44:58;;;;;;;0.50;0.32;;;16.20;56.50;;;;;;5013966;28;20041;-76
2023/04/03 01:47:24;;;;;;;0.28;0.28;;;16.20;56.50;;;;;;5013973;28;20018;-76
2023/04/03 01:49:50;;;;;;;0.20;0.20;;;16.20;56.50;;;;;;5014141;28;20030;-76
2023/04/03 01:52:16;;;;;;;0.30;0.30;;;16.20;56.40;;;;;;5013654;28;20433;-76
2023/04/03 01:54:42;;;;;;;0.50;0.32;;;16.20;56.40;;;;;;5014207;28;20033;-76
2023/04/03 01:57:08;;;;;;;0.30;0.30;;;16.20;56.40;;;;;;5013731;28;20369;-76
2023/04/03 01:59:34;;;;;;;0.93;0.30;;;16.20;56.40;;;;;;5013731;28;20030;-76
2023/04/03 02:02:00;;;;;;;1.63;0.30;;;16.20;56.40;;;;;;5013829;28;20036;-76
2023/04/03 02:04:26;;;;;;;0.20;0.20;;;16.10;56.40;;;;;;5013577;28;20030;-76
2023/04/03 02:06:52;;;;;;;0.50;0.30;;;16.10;56.40;;;;;;5013860;28;20045;-76
2023/04/03 02:09:18;;;;;;;0.80;0.35;;;16.10;56.40;;;;;;5013915;28;20031;-75
2023/04/03 02:11:44;;;;;;;0.50;0.30;;;16.10;56.30;;;;;;5013366;28;20551;-75
2023/04/03 02:14:10;;;;;;;2.03;0.50;;;16.10;56.30;;;;;;5013601;28;20033;-75
2023/04/03 02:16:36;;;;;;;0.50;0.28;;;16.10;56.30;;;;;;5013026;28;20042;-75
2023/04/03 02:19:02;;;;;;;0.22;0.22;;;16.10;56.30;;;;;;5013716;28;20088;-75
2023/04/03 02:21:28;;;;;;;0.65;0.30;;;16.10;56.30;;;;;;5013766;28;20018;-75
2023/04/03 02:23:54;;;;;;;0.20;0.20;;;16.10;56.30;;;;;;5013476;28;20014;-76
2023/04/03 02:26:20;;;;;;;0.20;0.20;;;16.10;56.30;;;;;;5013448;28;20026;-75
2023/04/03 02:28:46;;;;;;;0.40;0.28;;;16.10;56.30;;;;;;5013480;28;20026;-75
2023/04/03 02:31:13;;;;;;;0.63;0.40;;;16.10;56.30;;;;;;5013195;28;20636;-76
2023/04/03 02:33:39;;;;;;;1.25;0.20;;;16.00;56.20;;;;;;5013017;28;20469;-75
2023/04/03 02:36:06;;;;;;;0.35;0.30;;;16.10;56.20;;;;;;5013277;28;20044;-75
2023/04/03 02:38:33;;;;;;;0.85;0.30;;;16.00;56.20;;;;;;5013291;28;20444;-76
2023/04/03 02:41:04;;;;;;;0.82;0.40;;;16.50;56.40;;;;;;5012994;28;20022;-76
2023/04/03 02:43:30;;;;;;;0.15;0.15;;;16.00;56.20;;;;;;5013469;28;20033;-76
2023/04/03 02:45:56;;;;;;;0.30;0.30;;;16.00;56.20;;;;;;5013421;28;20044;-76
2023/04/03 02:48:22;;;;;;;0.22;0.20;;;16.00;56.10;;;;;;5013030;28;20029;-76
2023/04/03 02:50:48;;;;;;;0.25;0.20;;;16.00;56.10;;;;;;5012898;28;20489;-76
2023/04/03 02:53:15;;;;;;;0.73;0.28;;;16.00;56.10;;;;;;5013088;28;20025;-76
2023/04/03 02:55:41;;;;;;;0.32;0.25;;;16.00;56.20;;;;;;5013173;28;20283;-76
2023/04/03 02:58:06;;;;;;;0.40;0.32;;;16.00;56.10;;;;;;5013089;28;20025;-76
2023/04/03 03:00:32;;;;;;;0.20;0.20;;;16.00;56.10;;;;;;5012951;28;20030;-76
2023/04/03 03:02:58;;;;;;;0.38;0.20;;;15.90;56.10;;;;;;5012967;28;20424;-76
2023/04/03 03:05:24;;;;;;;1.10;0.73;;;15.90;56.10;;;;;;5012887;28;20048;-76
2023/04/03 03:07:49;;;;;;;0.32;0.20;;;15.90;56.10;;;;;;5012889;28;20053;-75
2023/04/03 03:10:15;;;;;;;0.32;0.30;;;15.90;56.00;;;;;;5012642;28;20112;-75
2023/04/03 03:12:41;;;;;;;0.40;0.40;;;15.90;56.10;;;;;;5012576;28;20026;-75
2023/04/03 03:15:07;;;;;;;0.47;0.40;;;15.90;56.00;;;;;;5012349;28;20030;-75
2023/04/03 03:17:33;;;;;;;0.30;0.20;;;15.90;56.10;;;;;;5012735;28;20018;-75
2023/04/03 03:19:59;;;;;;;0.60;0.30;;;15.90;56.00;;;;;;5012724;28;20104;-76
2023/04/03 03:22:26;;;;;;;0.77;0.30;;;15.90;56.10;;;;;;5012510;28;20399;-76
2023/04/03 03:24:52;;;;;;;0.50;0.30;;;15.90;56.00;;;;;;5012372;28;20041;-75
2023/04/03 03:27:17;;;;;;;0.65;0.30;;;15.90;56.10;;;;;;5012432;28;20022;-75
2023/04/03 03:29:44;;;;;;;0.20;0.20;;;15.80;56.00;;;;;;5012574;28;20087;-75
2023/04/03 03:32:09;;;;;;;0.68;0.30;;;15.80;56.00;;;;;;5012463;28;20076;-76
2023/04/03 03:34:35;;;;;;;0.50;0.40;;;15.80;56.10;;;;;;5012803;28;20431;-76
2023/04/03 03:37:01;;;;;;;1.00;0.50;;;15.80;56.10;;;;;;5012689;28;20022;-76
2023/04/03 03:39:28;;;;;;;0.20;0.20;;;15.80;56.00;;;;;;5012804;28;20041;-76
2023/04/03 03:41:54;;;;;;;0.43;0.32;;;15.80;56.00;;;;;;5012998;28;20429;-76
2023/04/03 03:44:21;;;;;;;0.20;0.20;;;15.80;56.00;;;;;;4995316;28;20056;-76
2023/04/03 03:46:47;;;;;;;0.47;0.25;;;15.80;56.00;;;;;;5012702;28;20026;-76
2023/04/03 03:49:13;;;;;;;0.70;0.32;;;15.80;56.00;;;;;;5012810;28;20080;-76
2023/04/03 03:51:40;;;;;;;0.20;0.20;;;15.80;56.00;;;;;;5012303;28;20376;-76
2023/04/03 03:54:07;;;;;;;0.43;0.20;;;15.80;56.00;;;;;;5012715;28;20389;-75
2023/04/03 03:56:33;;;;;;;0.28;0.28;;;15.70;55.90;;;;;;5012735;28;20053;-76
2023/04/03 03:58:59;;;;;;;0.20;0.20;;;15.80;56.00;;;;;;5012639;28;20022;-76
2023/04/03 04:10:44;;;;;;;0.50;0.30;;;15.70;55.90;;;;;;5015919;28;20079;-72
2023/04/03 04:13:10;;;;;;;0.32;0.28;;;15.70;56.10;;;;;;5015536;28;20034;-72
2023/04/03 04:15:36;;;;;;;0.25;0.20;;;15.70;56.00;;;;;;5015468;28;20538;-72
2023/04/03 04:18:01;;;;;;;0.82;0.20;;;15.70;56.10;;;;;;5015477;28;20058;-72
2023/04/03 04:20:27;;;;;;;0.25;0.25;;;15.70;56.00;;;;;;5015449;28;20041;-72
2023/04/03 04:22:53;;;;;;;0.77;0.43;;;15.60;56.00;;;;;;5015224;28;20052;-72
2023/04/03 04:25:18;;;;;;;0.45;0.30;;;15.70;56.00;;;;;;5015437;28;20125;-72
2023/04/03 04:27:44;;;;;;;0.57;0.40;;;15.70;56.10;;;;;;5015161;28;20022;-72
2023/04/03 04:30:11;;;;;;;0.50;0.40;;;15.60;56.00;;;;;;5015407;28;20041;-72
2023/04/03 04:32:37;;;;;;;0.40;0.10;;;15.60;56.00;;;;;;5015383;28;20029;-72
2023/04/03 04:35:03;;;;;;;0.50;0.40;;;15.60;56.00;;;;;;5015068;28;20034;-72
2023/04/03 04:37:29;;;;;;;0.50;0.30;;;15.60;56.00;;;;;;5015236;28;20025;-72
2023/04/03 04:39:55;;;;;;;0.80;0.40;;;15.60;56.00;;;;;;5014889;28;20022;-72
2023/04/03 04:42:20;;;;;;;0.70;0.60;;;15.60;56.00;;;;;;5015028;28;20025;-72
2023/04/03 04:44:46;;;;;;;0.77;0.20;;;15.60;56.00;;;;;;5014767;28;20045;-72
2023/04/03 04:47:12;;;;;;;1.10;0.35;;;15.60;56.00;;;;;;5014789;28;20100;-72
2023/04/03 04:49:37;;;;;;;0.40;0.40;;;15.50;56.00;;;;;;5014793;28;20475;-72
2023/04/03 04:52:03;;;;;;;0.45;0.32;;;15.50;56.00;;;;;;5014610;28;20026;-72
2023/04/03 04:54:29;;;;;;;0.40;0.30;;;15.50;56.00;;;;;;5014647;28;20060;-72
2023/04/03 04:56:55;;;;;;;0.30;0.20;;;15.50;56.00;;;;;;5014526;28;20026;-72
2023/04/03 04:59:20;;;;;;;0.40;0.25;;;15.50;56.00;;;;;;5014452;28;20084;-72
2023/04/03 05:01:46;;;;;;;0.50;0.40;;;15.50;56.10;;;;;;5014080;28;20026;-72
2023/04/03 05:04:12;;;;;;;0.57;0.30;;;15.50;56.00;;;;;;5014212;28;20120;-72
2023/04/03 05:06:38;;;;;;;0.85;0.20;;;15.50;56.00;;;;;;5014650;28;20117;-72
2023/04/03 05:09:05;;;;;;;0.47;0.30;;;15.50;55.90;;;;;;5014535;28;20030;-73
2023/04/03 05:11:30;;;;;;;0.68;0.20;;;15.50;56.60;;;;;;5014277;28;20117;-72
2023/04/03 05:13:56;;;;;;;0.75;0.40;;;15.40;56.00;;;;;;5013689;28;20131;-72
2023/04/03 05:16:21;;;;;;;0.47;0.30;;;15.50;56.00;;;;;;5014203;28;20037;-74
2023/04/03 05:18:47;;;;;;;0.40;0.30;;;15.50;56.10;;;;;;5016500;28;20022;-72
2023/04/03 05:21:13;;;;;;;0.50;0.30;;;15.50;56.00;;;;;;5017117;28;20104;-72
2023/04/03 05:23:39;;;;;;;0.50;0.30;;;15.50;56.00;;;;;;5014300;28;20041;-72
2023/04/03 05:26:05;;;;;;;0.65;0.30;;;15.40;56.00;;;;;;5013860;28;20037;-72
2023/04/03 05:28:31;;;;;;;0.30;0.28;;;15.40;56.00;;;;;;5014034;28;20465;-72
2023/04/03 05:30:57;;;;;;;0.35;0.25;;;15.40;56.10;;;;;;5013811;28;20064;-73
2023/04/03 05:33:24;;;;;;;0.93;0.40;;;15.40;56.10;;;;;;5014164;28;20380;-74
2023/04/03 05:35:50;;;;;;;0.77;0.50;;;15.40;56.00;;;;;;5019699;28;20022;-72
2023/04/03 05:38:16;;;;;;;0.28;0.20;;;15.40;56.00;;;;;;5013638;28;20087;-72
2023/04/03 05:40:42;;;;;;;0.40;0.30;;;15.40;56.70;;;;;;5013755;28;20030;-72
2023/04/03 05:43:07;;;;;;;1.08;0.32;;;15.30;56.00;;;;;;5013717;28;20030;-73
2023/04/03 05:45:33;;;;;;;0.82;0.30;;;15.40;56.00;;;;;;5013678;28;20037;-73
2023/04/03 05:47:58;;;;;;;0.73;0.30;;;15.30;55.90;;;;;;5013652;28;20022;-71
2023/04/03 05:50:25;;;;;;;0.52;0.35;;;15.30;55.90;;;;;;5013639;28;20504;-71
2023/04/03 05:52:54;;;;;;;0.28;0.22;;;15.40;56.60;;;;;;5013627;28;20025;-71
2023/04/03 05:55:20;;;;;;;1.23;0.40;;;15.30;55.90;;;;;;5013840;28;20420;-71
2023/04/03 05:57:46;;;;;;;0.80;0.50;;;15.30;55.90;;;;;;5013560;28;20447;-71
2023/04/03 06:00:16;;;;;;;0.85;0.43;;;15.30;55.90;;;;;;5013665;28;20018;-71
2023/04/03 06:02:42;;;;;;;0.60;0.43;;;15.30;55.80;;;;;;5013178;28;20518;-71
2023/04/03 06:05:09;;;;;;;1.88;0.40;;;15.30;55.90;;;;;;5013281;28;20045;-71
2023/04/03 06:07:35;;;;;;;0.75;0.40;;;15.30;55.80;;;;;;5013414;28;20025;-71
2023/04/03 06:10:02;;;;;;;1.67;0.40;;;15.30;55.80;;;;;;5013355;28;20025;-72
2023/04/03 06:12:29;;;;;;;0.73;0.40;;;15.30;55.80;;;;;;5013188;28;20026;-71
2023/04/03 06:14:56;;;;;;;0.65;0.40;;;15.30;55.70;;;;;;5013421;28;20030;-72
2023/04/03 06:17:22;;;;;;;1.52;0.52;;;15.30;55.70;;;;;;5013002;28;20026;-72
2023/04/03 06:19:48;;;;;;;1.58;0.70;;;15.30;55.70;;;;;;5013412;28;20042;-72
2023/04/03 06:22:15;;;;;;;0.57;0.40;;;15.30;55.70;;;;;;5012980;28;20500;-72
2023/04/03 06:24:41;;;;;;;0.35;0.32;;;15.30;55.70;;;;;;5013184;28;20029;-72
2023/04/03 06:27:07;;;;;;;0.60;0.52;;;15.30;55.60;;;;;;5012469;28;20028;-73
2023/04/03 06:29:33;;;;;;;0.55;0.30;;;15.30;55.60;;;;;;5013010;28;20029;-71
2023/04/03 06:31:59;;;;;;;1.55;0.80;;;15.30;55.60;;;;;;5012917;28;20026;-72
2023/04/03 06:34:25;;;;;;;0.43;0.43;;;15.20;55.50;;;;;;5012912;28;20033;-72
2023/04/03 06:36:51;;;;;;;0.70;0.40;;;15.20;55.50;;;;;;5012867;28;20026;-73
2023/04/03 06:39:25;;;;;;;1.40;0.40;;;15.20;55.50;;;;;;5012510;28;20104;-73
2023/04/03 06:41:51;;;;;;;1.23;0.43;;;15.20;55.50;;;;;;5012678;28;20053;-72
2023/04/03 06:44:17;;;;;;;0.65;0.40;;;15.20;55.50;;;;;;5012656;28;20034;-72
2023/04/03 06:46:45;;;;;;;0.95;0.43;;;15.20;56.10;;;;;;5012683;28;20540;-72
2023/04/03 06:49:11;;;;;;;0.43;0.43;;;15.20;55.40;;;;;;5012906;28;20423;-73
2023/04/03 06:51:37;;;;;;;1.75;0.28;;;15.20;55.40;;;;;;5012519;28;20026;-73
2023/04/03 06:54:05;;;;;;;0.82;0.50;;;15.20;55.40;;;;;;5012797;28;20148;-72
2023/04/03 06:56:32;;;;;;;1.02;0.57;;;15.20;55.40;;;;;;5012433;28;20507;-73
2023/04/03 06:58:58;;;;;;;1.13;0.50;;;15.20;55.30;;;;;;5012526;28;20026;-73
2023/04/03 07:01:27;;;;;;;0.88;0.40;;;15.10;64.60;;;;;;5012502;28;20021;-74
2023/04/03 07:03:54;;;;;;;2.65;0.70;;;15.20;55.40;;;;;;5012326;28;20053;-73
2023/04/03 07:06:21;;;;;;;1.17;0.50;;;15.10;55.40;;;;;;5012706;28;20030;-74
2023/04/03 07:08:48;;;;;;;0.40;0.40;;;15.20;55.40;;;;;;5012113;28;20018;-73
2023/04/03 07:11:16;;;;;;;1.25;0.35;;;15.20;55.40;;;;;;5012665;28;20037;-73
2023/04/03 07:13:42;;;;;;;0.75;0.40;;;15.20;55.50;;;;;;5012344;28;20025;-73
2023/04/03 07:16:08;;;;;;;0.75;0.40;;;15.20;55.50;;;;;;5012249;28;20034;-72
2023/04/03 07:18:35;;;;;;;1.08;0.70;;;15.20;55.70;;;;;;5012194;28;20548;-73
2023/04/03 07:21:02;;;;;;;1.23;0.50;;;15.10;55.70;;;;;;5012286;28;20030;-73
2023/04/03 07:23:28;;;;;;;0.63;0.43;;;15.10;55.80;;;;;;5012255;28;20402;-74
2023/04/03 07:25:55;;;;;;;0.75;0.47;;;15.10;55.90;;;;;;5012368;28;20057;-72
2023/04/03 07:28:22;;;;;;;2.00;0.47;;;15.10;55.90;;;;;;5012526;28;20109;-72
2023/04/03 07:30:51;;;;;;;1.67;0.65;;;15.10;56.10;;;;;;5011699;28;20084;-74
2023/04/03 07:33:18;;;;;;;1.92;0.50;;;15.10;56.20;;;;;;5012101;28;20022;-73
2023/04/03 07:35:45;;;;;;;1.98;0.55;;;15.10;56.40;;;;;;5011868;28;20038;-73
2023/04/03 07:38:11;;;;;;;2.65;0.40;;;15.10;56.30;;;;;;5012510;28;20420;-73
2023/04/03 07:40:38;;;;;;;0.63;0.40;;;15.10;56.50;;;;;;5015852;28;20508;-73
2023/04/03 07:43:05;;;;;;;2.83;0.63;;;15.10;56.70;;;;;;5016212;28;20392;-73
2023/04/03 07:45:31;;;;;;;0.70;0.40;;;15.00;56.80;;;;;;5015952;28;20402;-73
2023/04/03 07:47:57;;;;;;;1.98;0.52;;;15.00;57.10;;;;;;5016024;28;20018;-73
2023/04/03 07:50:23;;;;;;;2.35;0.60;;;15.00;57.30;;;;;;5016136;28;20029;-73
2023/04/03 07:52:50;;;;;;;1.70;0.73;;;15.00;57.50;;;;;;5015864;28;20116;-73
2023/04/03 07:55:16;;;;;;;1.92;0.47;;;15.00;57.60;;;;;;5016094;28;20388;-73
2023/04/03 07:57:43;;;;;;;1.05;0.60;;;15.00;57.80;;;;;;5015758;28;20022;-73
2023/04/03 08:00:10;;;;;;;1.42;0.47;;;15.00;57.90;;;;;;5016152;28;20042;-71
2023/04/03 08:02:36;;;;;;;1.00;0.50;;;15.00;57.90;;;;;;5015663;28;20049;-72
2023/04/03 08:05:03;;;;;;;0.65;0.40;;;15.00;58.00;;;;;;5015479;28;20670;-73
2023/04/03 08:07:29;;;;;;;1.45;0.55;;;15.10;57.90;;;;;;5017002;28;20413;-71
2023/04/03 08:09:55;;;;;;;0.90;0.38;;;15.10;57.80;;;;;;5020676;28;20071;-72
2023/04/03 08:12:21;;;;;;;0.80;0.50;;;15.10;58.00;;;;;;5015762;28;20191;-71
2023/04/03 08:14:47;;;;;;;1.17;0.75;;;15.10;57.90;;;;;;5015131;28;20392;-71
2023/04/03 08:17:13;;;;;;;0.60;0.47;;;15.20;58.20;;;;;;5015667;28;20080;-71
2023/04/03 08:19:39;;;;;;;0.80;0.70;;;15.20;58.30;;;;;;5015603;28;20050;-70
2023/04/03 08:22:06;;;;;;;1.17;0.60;;;15.20;58.20;;;;;;5015530;28;20033;-71
2023/04/03 08:24:33;;;;;;;2.90;0.70;;;15.20;58.40;;;;;;5015172;28;20030;-71
2023/04/03 08:27:00;;;;;;;1.33;0.50;;;15.20;58.40;;;;;;5015110;28;20068;-72
2023/04/03 08:29:26;;;;;;;1.00;0.50;;;15.20;58.30;;;;;;5015449;28;20064;-72
2023/04/03 08:31:52;;;;;;;1.73;0.68;;;15.30;58.30;;;;;;5015052;28;20506;-71
2023/04/03 08:34:19;;;;;;;2.08;0.70;;;15.30;58.30;;;;;;5015106;28;20400;-72
2023/04/03 08:36:45;;;;;;;1.67;0.82;;;15.30;58.40;;;;;;5015339;28;20161;-71
2023/04/03 08:39:12;;;;;;;0.40;0.40;;;15.30;58.30;;;;;;5015221;28;20018;-72
2023/04/03 08:41:44;;;;;;;1.48;0.60;;;15.40;58.30;;;;;;5015313;28;20040;-73
2023/04/03 08:44:39;;;;;;;1.05;0.45;;;15.40;58.40;;;;;;5014831;28;20022;-72
2023/04/03 08:47:07;;;;;;;2.35;0.70;;;15.40;58.50;;;;;;5014863;28;20512;-72
2023/04/03 08:49:47;;;;;;;2.90;0.60;;;15.40;58.50;;;;;;5014218;28;20053;-73
2023/04/03 08:52:23;;;;;;;1.27;0.68;;;15.40;58.50;;;;;;5015045;28;20028;-72
2023/04/03 08:54:58;;;;;;;0.70;0.43;;;15.50;58.40;;;;;;5014844;28;20026;-72
2023/04/03 08:57:39;;;;;;;1.02;0.70;;;15.50;58.50;;;;;;5014449;28;20026;-72
2023/04/03 09:00:28;;;;;;;0.98;0.73;;;15.60;58.50;;;;;;5014575;28;20022;-72
2023/04/03 09:02:56;;;;;;;1.65;0.55;;;15.60;58.70;;;;;;5014434;28;20414;-72
2023/04/03 09:05:52;;;;;;;2.38;0.70;;;15.60;58.40;;;;;;5014250;28;20038;-72
2023/04/03 09:08:31;;;;;;;0.98;0.45;;;15.70;58.50;;;;;;5014733;28;20354;-72
2023/04/03 09:11:23;;;;;;;2.40;0.57;;;15.70;58.70;;;;;;5014352;28;20045;-72
2023/04/03 09:14:13;;;;;;;0.95;0.60;;;15.70;58.70;;;;;;5014132;28;20026;-72
2023/04/03 09:16:47;;;;;;;1.02;0.50;;;15.70;58.30;;;;;;5014316;28;20024;-72
2023/04/03 09:19:31;;;;;;;1.25;0.52;;;15.80;58.40;;;;;;5014155;28;20018;-72
2023/04/03 09:22:26;;;;;;;1.60;0.60;;;15.80;58.50;;;;;;5014314;28;20034;-71
2023/04/03 09:25:15;;;;;;;0.93;0.70;;;15.90;58.40;;;;;;5013396;28;20037;-74
2023/04/03 09:27:41;;;;;;;1.13;0.60;;;15.90;58.40;;;;;;5014174;28;20066;-75
2023/04/03 09:30:14;;;;;;;0.60;0.40;;;15.90;58.40;;;;;;5014185;28;20381;-74
2023/04/03 09:32:40;;;;;;;2.00;0.52;;;16.00;58.40;;;;;;5013768;28;20121;-74
2023/04/03 09:35:21;;;;;;;1.88;0.60;;;16.10;58.30;;;;;;5013783;28;20071;-73
2023/04/03 09:37:51;;;;;;;0.77;0.40;;;16.10;58.10;;;;;;5014040;28;20050;-74
2023/04/03 09:40:26;;;;;;;0.82;0.38;;;16.10;58.20;;;;;;5013699;28;20041;-74
2023/04/03 09:42:54;;;;;;;1.60;0.80;;;16.20;58.10;;;;;;5013987;28;20030;-73
2023/04/03 09:45:30;;;;;;;1.52;0.60;;;16.20;58.00;;;;;;5013441;28;20048;-74
2023/04/03 09:48:17;;;;;;;1.00;0.50;;;16.30;57.60;;;;;;5012364;28;20440;-73
2023/04/03 09:51:04;;;;;;;3.17;1.13;;;16.30;57.50;;;;;;5013551;28;20029;-72
2023/04/03 09:53:46;;;;;;;3.22;0.77;;;16.40;57.30;;;;;;5011996;28;20037;-72
2023/04/03 09:56:15;;;;;;;1.20;0.52;;;16.40;56.70;;;;;;5013674;28;20080;-74
2023/04/03 09:59:02;;;;;;;1.05;0.40;;;16.50;57.30;;;;;;5013841;28;20464;-74
2023/04/03 10:01:37;;;;;;;1.08;0.50;;;16.80;65.80;;;;;;5011971;28;20105;-74
2023/04/03 10:04:15;;;;;;;0.93;0.40;;;16.60;56.90;;;;;;5013227;28;20037;-75
2023/04/03 10:06:46;;;;;;;3.80;0.55;;;16.60;56.80;;;;;;5013447;28;20030;-75
2023/04/03 10:09:28;;;;;;;5.63;0.77;;;16.70;56.80;;;;;;5013109;28;20057;-74
2023/04/03 10:12:08;;;;;;;13.20;1.13;;;16.70;56.80;;;;;;5013460;28;20100;-74
2023/04/03 10:14:38;;;;;;;10.33;1.50;;;16.80;56.60;;;;;;5013129;28;20030;-73
2023/04/03 10:17:32;;;;;;;15.27;1.02;;;16.90;55.30;;;;;;5013278;28;20022;-73
2023/04/03 10:20:05;;;;;;;13.88;0.77;;;16.90;55.80;;;;;;5013240;28;20034;-73
2023/04/03 10:22:33;;;;;;;6.43;0.70;;;17.00;55.80;;;;;;5012875;28;20493;-73
2023/04/03 10:25:11;;;;;;;5.57;1.13;;;17.00;55.60;;;;;;5012789;28;20496;-73
2023/04/03 10:28:01;;;;;;;5.10;1.10;;;17.10;55.60;;;;;;5012763;28;20060;-72
2023/04/03 10:30:58;;;;;;;4.20;0.80;;;17.20;55.60;;;;;;5012603;28;20080;-74
2023/04/03 10:33:46;;;;;;;3.67;0.57;;;17.20;55.00;;;;;;4989432;28;20038;-72
2023/04/03 10:36:31;;;;;;;5.05;1.15;;;17.30;54.70;;;;;;5012764;28;20034;-74
2023/04/03 10:39:00;;;;;;;2.72;0.55;;;17.30;54.90;;;;;;5012547;28;20026;-74
2023/04/03 10:41:31;;;;;;;7.97;1.42;;;17.40;54.20;;;;;;5012059;28;20029;-75
2023/04/03 10:44:37;;;;;;;3.83;0.60;;;17.40;54.60;;;;;;5012779;28;20033;-73
2023/04/03 10:47:27;;;;;;;4.22;0.73;;;17.50;54.50;;;;;;5012598;28;20113;-73
2023/04/03 10:50:20;;;;;;;4.88;0.63;;;17.50;54.30;;;;;;5012478;28;20029;-75
2023/04/03 10:53:21;;;;;;;6.55;0.40;;;17.60;53.50;;;;;;5012692;28;20392;-74
2023/04/03 10:56:01;;;;;;;3.25;0.60;;;17.70;53.90;;;;;;5012475;28;20041;-74
2023/04/03 10:58:27;;;;;;;6.18;0.68;;;17.80;53.20;;;;;;5012572;28;20021;-74
2023/04/03 11:00:57;;;;;;;3.42;0.68;;;17.80;52.80;;;;;;5012404;28;20397;-74
2023/04/03 11:03:44;;;;;;;3.50;0.70;;;17.90;53.70;;;;;;5012125;28;20061;-74
2023/04/03 11:06:13;;;;;;;2.53;0.30;;;17.90;54.00;;;;;;5012718;28;20441;-73
2023/04/03 11:09:03;;;;;;;1.63;0.50;;;18.00;54.10;;;;;;5012636;28;20045;-73
2023/04/03 11:11:32;;;;;;;;;;;18.00;53.40;;;;;;5012956;28;20117;-73
2023/04/03 11:14:16;;;;;;;3.13;0.57;;;18.10;53.30;;;;;;5012390;28;19951;-73
2023/04/03 11:16:47;;;;;;;3.38;0.50;;;18.20;53.10;;;;;;5012159;28;20026;-74
2023/04/03 11:19:23;;;;;;;3.97;0.80;;;18.20;53.90;;;;;;5012340;28;20121;-74
2023/04/03 11:22:03;;;;;;;0.43;0.30;;;18.30;52.70;;;;;;5012424;28;20134;-73
2023/04/03 11:24:32;;;;;;;1.40;0.30;;;18.30;52.90;;;;;;5012475;28;20455;-73
2023/04/03 11:27:03;;;;;;;1.67;0.30;;;18.40;52.70;;;;;;5012168;28;20026;-73
2023/04/03 11:29:40;;;;;;;2.53;0.43;;;18.40;52.20;;;;;;5012338;28;20065;-72
2023/04/03 11:32:31;;;;;;;2.33;0.40;;;18.50;51.10;;;;;;5012590;28;20026;-72
2023/04/03 11:35:01;;;;;;;3.30;0.80;;;18.60;52.40;;;;;;5012269;28;20025;-72
2023/04/03 11:37:45;;;;;;;2.30;0.70;;;18.60;52.20;;;;;;5012137;28;20022;-72
2023/04/03 11:40:22;;;;;;;1.55;0.40;;;18.70;51.80;;;;;;5011840;28;20029;-72
2023/04/03 11:43:02;;;;;;;2.53;0.38;;;18.80;51.20;;;;;;5012409;28;20038;-72
2023/04/03 11:46:00;;;;;;;0.30;0.27;;;18.80;50.20;;;;;;5012399;28;20034;-72
2023/04/03 11:48:48;;;;;;;2.35;0.60;;;18.90;51.60;;;;;;5012294;28;20288;-72
2023/04/03 11:51:17;;;;;;;2.70;0.60;;;18.90;51.90;;;;;;5012268;28;20110;-72
2023/04/03 11:53:44;;;;;;;0.57;0.20;;;19.00;51.20;;;;;;5012263;28;20028;-72
2023/04/03 11:56:25;;;;;;;0.98;0.32;;;19.00;51.40;;;;;;5011931;28;20503;-72
2023/04/03 11:59:09;;;;;;;0.65;0.50;;;19.10;50.00;;;;;;5012273;28;20088;-72
2023/04/03 12:01:46;;;;;;;0.52;0.38;;;19.20;49.80;;;;;;5011697;28;20037;-75
2023/04/03 12:04:16;;;;;;;2.50;0.50;;;19.30;50.40;;;;;;5012187;28;20412;-75
2023/04/03 12:06:48;;;;;;;;;;;19.30;50.30;;;;;;5012352;28;20511;-76
2023/04/03 12:09:55;;;;;;;1.17;0.52;;;19.40;51.10;;;;;;5012071;28;19905;-75
2023/04/03 12:12:36;;;;;;;0.80;0.40;;;19.30;50.90;;;;;;5011811;28;20061;-76
2023/04/03 12:15:44;;;;;;;0.47;0.40;;;19.40;51.10;;;;;;5012158;28;20420;-76
2023/04/03 12:18:58;;;;;;;1.20;0.50;;;19.60;49.20;;;;;;5012171;28;20036;-76
2023/04/03 12:21:56;;;;;;;0.85;0.32;;;19.60;49.90;;;;;;5011952;28;20076;-76
2023/04/03 12:24:39;;;;;;;0.90;0.40;;;19.70;49.10;;;;;;5008796;28;20026;-76
2023/04/03 12:27:19;;;;;;;3.42;0.40;;;19.80;49.70;;;;;;5015661;28;20033;-75
2023/04/03 12:30:06;;;;;;;0.63;0.30;;;19.80;49.60;;;;;;5015480;28;20137;-76
2023/04/03 12:32:41;;;;;;;0.75;0.35;;;19.90;49.70;;;;;;5015351;28;20105;-79
2023/04/03 12:35:20;;;;;;;1.40;0.32;;;19.90;49.60;;;;;;5015086;28;20044;-78
2023/04/03 12:38:25;;;;;;;1.80;0.30;;;19.90;49.60;;;;;;5015403;28;20029;-77
2023/04/03 12:41:03;;;;;;;0.30;0.30;;;20.00;49.50;;;;;;5015178;28;20034;-76
2023/04/03 12:43:35;;;;;;;0.68;0.30;;;20.10;49.10;;;;;;5015197;28;20181;-76
2023/04/03 12:46:07;;;;;;;0.77;0.30;;;20.10;49.20;;;;;;5015041;28;20045;-76
2023/04/03 12:48:50;;;;;;;0.77;0.38;;;20.10;49.40;;;;;;5014836;28;20029;-78
2023/04/03 12:51:28;;;;;;;0.35;0.22;;;20.20;49.50;;;;;;5015205;28;20537;-78
2023/04/03 12:54:01;;;;;;;0.40;0.30;;;20.30;47.90;;;;;;5014693;28;20037;-77
2023/04/03 12:56:29;;;;;;;1.15;0.63;;;20.30;48.20;;;;;;5014986;28;20041;-78
2023/04/03 12:59:26;;;;;;;0.55;0.40;;;20.40;47.60;;;;;;5014329;28;20113;-77
2023/04/03 13:01:59;;;;;;;1.50;0.40;;;20.40;48.40;;;;;;5014188;28;20041;-76
2023/04/03 13:04:27;;;;;;;2.92;0.43;;;20.50;47.90;;;;;;5014768;28;20038;-75
2023/04/03 13:06:52;;;;;;;0.77;0.50;;;20.50;47.80;;;;;;5014537;28;20041;-78
2023/04/03 13:09:22;;;;;;;1.13;0.30;;;20.50;48.00;;;;;;5014384;28;20037;-78
2023/04/03 13:11:57;;;;;;;1.40;0.40;;;20.60;48.00;;;;;;5014362;28;20033;-79
2023/04/03 13:14:26;;;;;;;0.63;0.30;;;20.60;47.80;;;;;;5014418;28;20087;-81
2023/04/03 13:17:14;;;;;;;0.20;0.20;;;20.70;47.40;;;;;;5014690;28;20452;-79